Time;durP1;ratioP1;P1;durP2;ratioP2;P2;SDS_P1;SDS_P2;PMS_P1;PMS_P2;Temp;Humidity;BMP_temperature;BMP_pressure;BME280_temperature;BME280_humidity;BME280_pressure;Samples;Min_cycle;Max_cycle;Signal;HPM_P1;HPM_P2
2022/08/30 00:02:46;;;;;;;7.50;2.90;;;;;;;;;;5132926;28;20112;-78
2022/08/30 00:05:12;;;;;;;8.13;2.80;;;;;;;;;;5133071;28;20031;-78
2022/08/30 00:07:38;;;;;;;6.85;3.00;;;;;;;;;;5133189;28;20038;-78
2022/08/30 00:10:05;;;;;;;7.95;3.17;;;;;;;;;;5132677;28;20080;-78
2022/08/30 00:12:31;;;;;;;8.55;2.80;;;;;;;;;;5133263;28;20065;-78
2022/08/30 00:14:58;;;;;;;5.85;3.40;;;;;;;;;;5133281;28;20542;-78
2022/08/30 00:17:25;;;;;;;5.30;2.58;;;;;;;;;;5132698;28;20053;-78
2022/08/30 00:19:51;;;;;;;6.45;2.90;;;;;;;;;;5133184;27;20023;-78
2022/08/30 00:22:17;;;;;;;5.18;2.92;;;;;;;;;;5137347;27;20068;-78
2022/08/30 00:24:43;;;;;;;5.97;3.30;;;;;;;;;;5118288;27;20361;-78
2022/08/30 00:27:09;;;;;;;4.82;2.88;;;;;;;;;;5136721;27;20387;-78
2022/08/30 00:29:35;;;;;;;5.72;3.10;;;;;;;;;;5136919;27;20430;-78
2022/08/30 00:32:01;;;;;;;5.68;3.42;;;;;;;;;;5136835;27;20034;-78
2022/08/30 00:34:28;;;;;;;6.03;3.38;;;;;;;;;;5137212;27;20031;-78
2022/08/30 00:36:54;;;;;;;4.50;3.38;;;;;;;;;;5136691;27;20024;-78
2022/08/30 00:39:20;;;;;;;7.75;3.30;;;;;;;;;;5136179;27;20032;-78
2022/08/30 00:41:47;;;;;;;6.57;3.38;;;;;;;;;;5136756;27;20019;-78
2022/08/30 00:44:13;;;;;;;7.13;3.70;;;;;;;;;;5136162;27;20076;-79
2022/08/30 00:46:39;;;;;;;6.43;3.50;;;;;;;;;;5136946;27;20027;-79
2022/08/30 00:49:07;;;;;;;5.70;3.58;;;;;;;;;;5136571;27;20076;-78
2022/08/30 00:51:33;;;;;;;5.97;3.70;;;;;;;;;;5117811;27;20015;-78
2022/08/30 00:54:00;;;;;;;7.35;3.80;;;;;;;;;;5136457;27;20023;-78
2022/08/30 00:56:27;;;;;;;7.25;3.78;;;;;;;;;;5136446;27;20038;-78
2022/08/30 00:58:55;;;;;;;6.82;3.50;;;;;;;;;;5136073;27;20472;-78
2022/08/30 01:01:21;;;;;;;9.57;4.00;;;;;;;;;;5136245;27;20047;-78
2022/08/30 01:03:48;;;;;;;7.72;4.03;;;;;;;;;;5135931;27;20023;-78
2022/08/30 01:06:15;;;;;;;9.20;3.75;;;;;;;;;;5135855;27;20102;-78
2022/08/30 01:08:41;;;;;;;8.25;4.00;;;;;;;;;;5136086;27;20098;-78
2022/08/30 01:11:08;;;;;;;5.30;3.58;;;;;;;;;;5135796;27;20042;-78
2022/08/30 01:13:34;;;;;;;5.97;4.47;;;;;;;;;;5119761;27;20077;-78
2022/08/30 01:16:01;;;;;;;8.48;4.70;;;;;;;;;;5115147;28;20027;-78
2022/08/30 01:18:27;;;;;;;5.57;4.15;;;;;;;;;;5114907;28;20063;-78
2022/08/30 01:20:53;;;;;;;6.57;4.60;;;;;;;;;;5115143;28;20020;-78
2022/08/30 01:23:21;;;;;;;7.18;4.47;;;;;;;;;;5114673;28;20057;-78
2022/08/30 01:25:48;;;;;;;8.73;5.13;;;;;;;;;;5115320;28;20047;-78
2022/08/30 01:28:17;;;;;;;7.13;4.50;;;;;;;;;;5115202;28;20020;-78
2022/08/30 01:30:43;;;;;;;7.00;4.95;;;;;;;;;;5114557;28;20028;-78
2022/08/30 01:33:10;;;;;;;5.70;4.53;;;;;;;;;;5114060;28;20023;-78
2022/08/30 01:35:48;;;;;;;8.13;4.75;;;;;;;;;;5114848;28;20427;-78
2022/08/30 01:38:15;;;;;;;6.72;4.90;;;;;;;;;;5114654;28;20019;-78
2022/08/30 01:40:41;;;;;;;10.80;4.70;;;;;;;;;;5114684;28;20024;-78
2022/08/30 01:43:08;;;;;;;6.78;5.22;;;;;;;;;;5114938;28;20027;-78
2022/08/30 01:45:34;;;;;;;6.05;4.82;;;;;;;;;;5096486;28;20439;-78
2022/08/30 01:48:00;;;;;;;9.77;5.82;;;;;;;;;;5114530;28;20058;-78
2022/08/30 01:50:26;;;;;;;7.65;5.28;;;;;;;;;;5112374;28;20034;-78
2022/08/30 01:52:52;;;;;;;9.75;6.00;;;;;;;;;;5094404;28;20070;-78
2022/08/30 01:55:18;;;;;;;7.57;5.50;;;;;;;;;;5094008;28;20028;-79
2022/08/30 01:57:45;;;;;;;10.65;6.25;;;;;;;;;;5093990;28;20035;-78
2022/08/30 02:00:12;;;;;;;11.52;5.80;;;;;;;;;;5093946;28;20022;-78
2022/08/30 02:02:38;;;;;;;6.63;5.50;;;;;;;;;;5093815;28;20044;-78
2022/08/30 02:05:04;;;;;;;7.93;6.00;;;;;;;;;;5094203;28;20437;-78
2022/08/30 02:07:31;;;;;;;9.55;5.82;;;;;;;;;;5094031;28;20028;-78
2022/08/30 02:09:57;;;;;;;8.88;6.07;;;;;;;;;;5093851;28;20069;-78
2022/08/30 02:12:23;;;;;;;8.80;5.70;;;;;;;;;;5093591;28;20110;-78
2022/08/30 02:14:49;;;;;;;7.88;6.25;;;;;;;;;;5093891;28;20031;-78
2022/08/30 02:17:15;;;;;;;8.20;6.85;;;;;;;;;;5093894;28;20060;-78
2022/08/30 02:19:41;;;;;;;8.55;6.72;;;;;;;;;;5093756;28;20088;-78
2022/08/30 02:22:07;;;;;;;7.63;5.97;;;;;;;;;;5094248;28;20024;-78
2022/08/30 02:24:34;;;;;;;10.43;6.68;;;;;;;;;;5094007;28;20024;-78
2022/08/30 02:27:00;;;;;;;10.40;7.00;;;;;;;;;;5093487;28;20045;-78
2022/08/30 02:29:26;;;;;;;8.25;7.05;;;;;;;;;;5093602;28;20036;-78
2022/08/30 02:31:52;;;;;;;11.57;6.57;;;;;;;;;;5093397;28;20028;-78
2022/08/30 02:34:18;;;;;;;9.75;7.32;;;;;;;;;;5093684;28;20043;-78
2022/08/30 02:36:45;;;;;;;8.80;7.10;;;;;;;;;;5093530;28;20028;-78
2022/08/30 02:39:12;;;;;;;11.27;7.32;;;;;;;;;;5093509;28;20024;-78
2022/08/30 02:41:38;;;;;;;9.52;7.35;;;;;;;;;;5093090;28;20431;-78
2022/08/30 02:44:05;;;;;;;9.73;6.75;;;;;;;;;;5092659;28;20020;-78
2022/08/30 02:46:31;;;;;;;9.45;6.70;;;;;;;;;;5093208;28;20031;-78
2022/08/30 02:48:57;;;;;;;8.23;6.47;;;;;;;;;;5093344;28;20024;-78
2022/08/30 02:51:23;;;;;;;10.65;7.50;;;;;;;;;;5093780;28;20035;-78
2022/08/30 02:53:49;;;;;;;11.55;7.82;;;;;;;;;;5074768;28;20032;-78
2022/08/30 02:56:15;;;;;;;10.15;7.90;;;;;;;;;;5093181;28;20050;-79
2022/08/30 02:58:42;;;;;;;10.90;7.57;;;;;;;;;;5092806;28;20020;-78
2022/08/30 03:01:11;;;;;;;13.30;8.50;;;;;;;;;;5092845;28;20040;-78
2022/08/30 03:03:37;;;;;;;10.48;8.10;;;;;;;;;;5093087;28;20024;-78
2022/08/30 03:06:03;;;;;;;16.25;7.95;;;;;;;;;;5093024;28;20028;-78
2022/08/30 03:08:29;;;;;;;10.70;8.18;;;;;;;;;;5092923;28;20104;-78
2022/08/30 03:10:56;;;;;;;9.98;7.95;;;;;;;;;;5093121;28;20461;-78
2022/08/30 03:13:23;;;;;;;11.13;7.95;;;;;;;;;;5106682;28;20049;-78
2022/08/30 03:15:49;;;;;;;12.32;9.15;;;;;;;;;;5112953;28;20038;-78
2022/08/30 03:18:16;;;;;;;13.35;9.57;;;;;;;;;;5113447;28;20303;-78
2022/08/30 03:20:42;;;;;;;11.98;8.70;;;;;;;;;;5113027;28;20354;-78
2022/08/30 03:23:08;;;;;;;10.75;8.30;;;;;;;;;;5112816;28;20031;-78
2022/08/30 03:25:34;;;;;;;11.70;9.05;;;;;;;;;;5112997;28;20028;-78
2022/08/30 03:28:00;;;;;;;12.73;8.85;;;;;;;;;;5113174;28;20023;-78
2022/08/30 03:30:27;;;;;;;12.20;9.82;;;;;;;;;;5112683;28;20027;-78
2022/08/30 03:32:53;;;;;;;13.73;9.93;;;;;;;;;;5113262;28;20119;-78
2022/08/30 03:35:19;;;;;;;13.02;9.60;;;;;;;;;;5112894;28;20032;-78
2022/08/30 03:37:46;;;;;;;13.13;9.77;;;;;;;;;;5112585;28;20027;-78
2022/08/30 03:40:13;;;;;;;21.45;10.20;;;;;;;;;;5112614;28;20108;-78
2022/08/30 03:42:40;;;;;;;13.75;9.18;;;;;;;;;;5112960;28;20107;-78
2022/08/30 03:45:06;;;;;;;20.77;11.35;;;;;;;;;;5113087;28;20459;-78
2022/08/30 03:47:33;;;;;;;13.70;10.15;;;;;;;;;;5112638;28;20037;-78
2022/08/30 03:49:59;;;;;;;15.15;10.80;;;;;;;;;;5113066;28;20016;-78
2022/08/30 03:52:25;;;;;;;13.00;9.70;;;;;;;;;;5076121;28;20032;-78
2022/08/30 03:54:51;;;;;;;14.88;10.30;;;;;;;;;;5092922;28;20456;-79
2022/08/30 03:57:18;;;;;;;13.63;10.18;;;;;;;;;;5096163;28;20032;-78
2022/08/30 03:59:44;;;;;;;15.05;11.43;;;;;;;;;;5096318;28;20016;-78
2022/08/30 04:02:10;;;;;;;15.23;10.93;;;;;;;;;;5096099;28;20392;-78
2022/08/30 04:04:36;;;;;;;13.65;10.60;;;;;;;;;;5096465;28;20024;-78
2022/08/30 04:07:03;;;;;;;16.63;11.23;;;;;;;;;;5096330;28;20035;-78
2022/08/30 04:09:29;;;;;;;20.13;11.23;;;;;;;;;;5095996;28;20099;-78
2022/08/30 04:11:55;;;;;;;17.25;11.48;;;;;;;;;;5096585;28;20028;-78
2022/08/30 04:14:22;;;;;;;16.63;11.50;;;;;;;;;;5096255;28;20028;-78
2022/08/30 04:16:48;;;;;;;15.55;10.73;;;;;;;;;;5095827;28;20020;-78
2022/08/30 04:19:14;;;;;;;15.88;10.70;;;;;;;;;;5095916;28;20028;-78
2022/08/30 04:21:40;;;;;;;17.52;11.48;;;;;;;;;;5096104;28;20458;-78
2022/08/30 04:24:06;;;;;;;14.00;10.80;;;;;;;;;;5095736;28;20091;-78
2022/08/30 04:26:33;;;;;;;17.17;10.65;;;;;;;;;;5095994;28;20025;-78
2022/08/30 04:28:59;;;;;;;14.27;10.70;;;;;;;;;;5096052;28;20042;-78
2022/08/30 04:31:26;;;;;;;16.60;10.88;;;;;;;;;;5077270;28;20339;-79
2022/08/30 04:33:52;;;;;;;17.33;10.63;;;;;;;;;;5095990;28;20024;-78
2022/08/30 04:36:18;;;;;;;16.33;11.15;;;;;;;;;;5095920;28;20050;-78
2022/08/30 04:38:45;;;;;;;19.45;11.60;;;;;;;;;;5095708;28;20036;-78
2022/08/30 04:41:16;;;;;;;16.85;11.23;;;;;;;;;;5110263;28;20058;-78
2022/08/30 04:43:43;;;;;;;14.00;10.82;;;;;;;;;;5115856;28;20019;-78
2022/08/30 04:46:09;;;;;;;14.88;10.63;;;;;;;;;;5115742;28;20023;-78
2022/08/30 04:48:37;;;;;;;16.05;10.30;;;;;;;;;;5116062;28;20027;-78
2022/08/30 04:51:13;;;;;;;16.77;11.27;;;;;;;;;;5115959;28;20087;-78
2022/08/30 04:53:39;;;;;;;20.65;11.80;;;;;;;;;;5115757;28;20035;-78
2022/08/30 04:56:15;;;;;;;14.25;11.13;;;;;;;;;;5115622;28;20449;-78
2022/08/30 04:58:41;;;;;;;14.32;10.85;;;;;;;;;;5115521;28;20473;-78
2022/08/30 05:01:11;;;;;;;16.00;10.77;;;;;;;;;;5115436;28;20036;-78
2022/08/30 05:03:37;;;;;;;13.98;10.93;;;;;;;;;;5115980;28;20525;-78
2022/08/30 05:06:03;;;;;;;15.73;10.40;;;;;;;;;;5115264;28;20051;-78
2022/08/30 05:08:29;;;;;;;15.18;10.27;;;;;;;;;;5115554;28;20090;-78
2022/08/30 05:10:55;;;;;;;16.35;10.70;;;;;;;;;;5097187;28;20032;-78
2022/08/30 05:13:21;;;;;;;16.30;9.90;;;;;;;;;;5101680;28;20354;-78
2022/08/30 05:15:48;;;;;;;18.40;10.77;;;;;;;;;;5094941;28;20469;-78
2022/08/30 05:18:14;;;;;;;12.80;9.70;;;;;;;;;;5094832;28;20028;-78
2022/08/30 05:20:41;;;;;;;16.25;10.02;;;;;;;;;;5094777;28;20528;-78
2022/08/30 05:23:07;;;;;;;16.52;10.50;;;;;;;;;;5095086;28;20032;-78
2022/08/30 05:25:35;;;;;;;13.88;10.30;;;;;;;;;;5094541;28;20024;-78
2022/08/30 05:28:02;;;;;;;16.05;11.00;;;;;;;;;;5076591;28;20052;-78
2022/08/30 05:30:28;;;;;;;20.58;10.30;;;;;;;;;;5094422;28;20082;-78
2022/08/30 05:32:54;;;;;;;15.63;9.77;;;;;;;;;;5094695;28;20032;-78
2022/08/30 05:35:20;;;;;;;16.80;9.75;;;;;;;;;;5094884;28;20036;-78
2022/08/30 05:37:47;;;;;;;15.75;9.43;;;;;;;;;;5094353;28;20024;-78
2022/08/30 05:40:16;;;;;;;11.75;9.07;;;;;;;;;;5094298;28;20028;-78
2022/08/30 05:42:42;;;;;;;13.32;9.75;;;;;;;;;;5094494;28;20075;-78
2022/08/30 05:45:09;;;;;;;16.80;10.63;;;;;;;;;;5094547;28;20024;-78
2022/08/30 05:47:35;;;;;;;10.70;8.15;;;;;;;;;;5094367;28;20437;-78
2022/08/30 05:50:01;;;;;;;12.20;9.38;;;;;;;;;;5094357;28;20016;-78
2022/08/30 05:52:27;;;;;;;13.80;8.98;;;;;;;;;;5094212;28;20110;-78
2022/08/30 05:54:55;;;;;;;11.70;7.95;;;;;;;;;;5094431;28;20107;-78
2022/08/30 05:57:21;;;;;;;13.07;8.05;;;;;;;;;;5094296;28;20020;-78
2022/08/30 05:59:47;;;;;;;11.93;7.95;;;;;;;;;;5094216;28;20024;-78
2022/08/30 06:02:13;;;;;;;12.02;8.07;;;;;;;;;;5093764;28;20043;-78
2022/08/30 06:04:39;;;;;;;14.98;7.88;;;;;;;;;;5094384;28;20024;-78
2022/08/30 06:07:05;;;;;;;12.15;7.95;;;;;;;;;;5094070;28;20024;-79
2022/08/30 06:09:31;;;;;;;8.10;7.28;;;;;;;;;;5094043;28;20048;-79
2022/08/30 06:11:57;;;;;;;13.27;6.65;;;;;;;;;;5094070;28;20032;-78
2022/08/30 06:14:23;;;;;;;8.40;6.97;;;;;;;;;;5093968;28;20054;-78
2022/08/30 06:16:50;;;;;;;10.63;6.80;;;;;;;;;;5093684;28;20020;-78
2022/08/30 06:19:17;;;;;;;10.15;6.82;;;;;;;;;;5074915;28;20489;-78
2022/08/30 06:21:46;;;;;;;12.55;6.60;;;;;;;;;;5113705;28;20049;-78
2022/08/30 06:24:12;;;;;;;10.13;6.32;;;;;;;;;;5113933;28;20038;-79
2022/08/30 06:26:40;;;;;;;9.70;6.22;;;;;;;;;;5113862;28;20024;-78
2022/08/30 06:29:06;;;;;;;10.10;6.10;;;;;;;;;;5113844;28;20023;-78
2022/08/30 06:31:32;;;;;;;13.35;6.03;;;;;;;;;;5129919;27;20043;-77
2022/08/30 06:33:59;;;;;;;10.00;5.55;;;;;;;;;;5123282;27;20031;-77
2022/08/30 06:36:25;;;;;;;9.10;4.97;;;;;;;;;;5113942;28;20031;-77
2022/08/30 06:38:55;;;;;;;7.28;5.35;;;;;;;;;;5113240;28;20470;-77
2022/08/30 06:41:24;;;;;;;8.80;4.40;;;;;;;;;;5113954;28;20047;-78
2022/08/30 06:43:50;;;;;;;11.80;4.53;;;;;;;;;;5114137;28;20027;-77
2022/08/30 06:46:23;;;;;;;8.23;3.92;;;;;;;;;;5113524;28;20458;-77
2022/08/30 06:48:50;;;;;;;6.43;3.70;;;;;;;;;;5113886;28;20362;-77
2022/08/30 06:51:20;;;;;;;6.68;3.78;;;;;;;;;;5126686;27;20384;-77
2022/08/30 06:53:47;;;;;;;9.23;3.88;;;;;;;;;;5134209;27;20080;-77
2022/08/30 06:56:13;;;;;;;8.38;4.03;;;;;;;;;;5133680;27;20076;-77
2022/08/30 06:58:40;;;;;;;5.45;3.10;;;;;;;;;;5133966;27;20109;-77
2022/08/30 07:01:06;;;;;;;5.65;2.72;;;;;;;;;;5133917;27;20066;-77
2022/08/30 07:03:32;;;;;;;3.65;2.15;;;;;;;;;;5133715;27;20023;-77
2022/08/30 07:05:58;;;;;;;5.68;2.42;;;;;;;;;;5122397;27;20027;-78
2022/08/30 07:08:24;;;;;;;5.68;2.08;;;;;;;;;;5133554;27;20034;-78
2022/08/30 07:10:53;;;;;;;3.45;1.92;;;;;;;;;;5133989;27;20024;-78
2022/08/30 07:13:20;;;;;;;4.22;1.60;;;;;;;;;;5119791;27;20446;-79
2022/08/30 07:15:47;;;;;;;3.63;1.40;;;;;;;;;;5121537;27;20054;-75
2022/08/30 07:20:58;;;;;;;2.70;1.35;;;;;;;;;;5127016;27;20057;-75
2022/08/30 07:23:24;;;;;;;4.15;1.20;;;;;;;;;;5114623;27;20016;-75
2022/08/30 07:25:50;;;;;;;6.47;1.20;;;;;;;;;;5112210;28;20061;-77
2022/08/30 07:28:17;;;;;;;4.43;1.13;;;;;;;;;;5112643;28;20073;-77
2022/08/30 07:30:43;;;;;;;3.45;0.90;;;;;;;;;;5112559;28;20055;-77
2022/08/30 07:33:09;;;;;;;4.20;1.20;;;;;;;;;;5112465;28;20027;-77
2022/08/30 07:35:36;;;;;;;2.25;1.20;;;;;;;;;;5112688;28;20020;-78
2022/08/30 07:38:02;;;;;;;6.75;1.55;;;;;;;;;;5112437;28;20023;-77
2022/08/30 07:40:28;;;;;;;1.83;1.08;;;;;;;;;;5111652;28;20019;-76
2022/08/30 07:42:54;;;;;;;2.90;1.20;;;;;;;;;;5114770;28;20012;-77
2022/08/30 07:45:20;;;;;;;3.75;1.08;;;;;;;;;;5117484;28;20027;-77
2022/08/30 07:47:46;;;;;;;4.15;0.95;;;;;;;;;;5121021;28;20020;-79
2022/08/30 07:50:12;;;;;;;5.65;1.10;;;;;;;;;;5117830;28;20047;-77
2022/08/30 07:52:38;;;;;;;3.22;1.02;;;;;;;;;;5104548;28;20019;-77
2022/08/30 07:55:05;;;;;;;2.90;1.00;;;;;;;;;;5112152;28;20058;-76
2022/08/30 07:57:33;;;;;;;6.38;1.08;;;;;;;;;;5112243;28;20093;-77
2022/08/30 07:59:59;;;;;;;3.15;1.02;;;;;;;;;;5093974;28;20031;-77
2022/08/30 08:02:25;;;;;;;6.60;1.17;;;;;;;;;;5112104;28;20089;-77
2022/08/30 08:04:51;;;;;;;3.70;1.00;;;;;;;;;;5094363;28;20043;-77
2022/08/30 08:07:18;;;;;;;5.97;1.20;;;;;;;;;;5112767;28;20024;-77
2022/08/30 08:09:44;;;;;;;3.25;1.15;;;;;;;;;;5112697;28;20102;-78
2022/08/30 08:12:10;;;;;;;4.82;1.00;;;;;;;;;;5113110;28;20028;-77
2022/08/30 08:14:36;;;;;;;4.85;0.98;;;;;;;;;;5111776;28;20020;-78
2022/08/30 08:17:03;;;;;;;3.28;1.00;;;;;;;;;;5111512;28;20027;-77
2022/08/30 08:19:29;;;;;;;3.00;1.00;;;;;;;;;;5099891;28;20469;-77
2022/08/30 08:21:58;;;;;;;3.83;0.90;;;;;;;;;;5120894;28;20597;-76
2022/08/30 08:24:25;;;;;;;4.72;1.17;;;;;;;;;;5119295;28;20501;-77
2022/08/30 08:26:51;;;;;;;5.80;0.93;;;;;;;;;;5121660;28;20042;-76
2022/08/30 08:29:17;;;;;;;2.50;1.00;;;;;;;;;;5116311;28;20071;-77
2022/08/30 08:31:45;;;;;;;7.90;0.90;;;;;;;;;;5111583;28;20031;-77
2022/08/30 08:34:11;;;;;;;5.18;1.00;;;;;;;;;;5093327;28;20420;-76
2022/08/30 08:36:37;;;;;;;4.10;0.90;;;;;;;;;;5110890;28;20035;-76
2022/08/30 08:39:04;;;;;;;5.50;1.40;;;;;;;;;;5111175;28;20016;-76
2022/08/30 08:41:36;;;;;;;2.92;1.10;;;;;;;;;;5094586;28;20031;-76
2022/08/30 08:44:26;;;;;;;2.08;1.00;;;;;;;;;;5093955;28;20028;-76
2022/08/30 08:46:59;;;;;;;4.57;1.10;;;;;;;;;;5083546;28;20055;-76
2022/08/30 08:49:25;;;;;;;2.92;0.82;;;;;;;;;;5094648;28;20034;-76
2022/08/30 08:54:43;;;;;;;4.40;0.93;;;;;;;;;;5092387;28;20051;-76
2022/08/30 08:57:10;;;;;;;4.28;1.23;;;;;;;;;;5093327;28;20134;-76
2022/08/30 08:59:36;;;;;;;3.33;0.90;;;;;;;;;;5093776;28;20423;-76
2022/08/30 09:02:14;;;;;;;4.57;1.15;;;;;;;;;;5093961;28;20048;-76
2022/08/30 09:04:40;;;;;;;5.85;0.70;;;;;;;;;;5099609;28;20019;-76
2022/08/30 09:07:17;;;;;;;3.53;1.10;;;;;;;;;;5114583;28;20027;-76
2022/08/30 09:09:43;;;;;;;2.28;0.90;;;;;;;;;;5114628;28;20110;-76
2022/08/30 09:12:10;;;;;;;1.58;0.80;;;;;;;;;;5114411;28;20478;-76
2022/08/30 09:14:39;;;;;;;5.95;0.98;;;;;;;;;;5114451;28;20023;-76
2022/08/30 09:17:15;;;;;;;3.13;0.93;;;;;;;;;;5114229;28;20045;-76
2022/08/30 09:19:54;;;;;;;5.78;1.13;;;;;;;;;;5114305;28;20023;-76
2022/08/30 09:22:37;;;;;;;3.28;0.95;;;;;;;;;;5114334;28;20039;-76
2022/08/30 09:25:06;;;;;;;3.90;0.93;;;;;;;;;;5114356;28;20073;-76
2022/08/30 09:27:37;;;;;;;4.82;1.10;;;;;;;;;;5114211;28;20057;-76
2022/08/30 09:30:26;;;;;;;4.28;1.52;;;;;;;;;;5114126;28;20531;-76
2022/08/30 09:32:53;;;;;;;2.65;1.38;;;;;;;;;;5114115;28;20123;-76
2022/08/30 09:35:39;;;;;;;3.10;1.13;;;;;;;;;;5114178;28;20522;-75
2022/08/30 09:38:07;;;;;;;6.28;1.10;;;;;;;;;;5099775;28;20127;-76
2022/08/30 09:40:39;;;;;;;6.47;1.05;;;;;;;;;;5114034;28;20020;-76
2022/08/30 09:43:10;;;;;;;7.32;1.73;;;;;;;;;;5113873;28;20023;-76
2022/08/30 09:45:38;;;;;;;2.25;0.60;;;;;;;;;;5113975;28;20024;-76
2022/08/30 09:48:23;;;;;;;4.68;0.95;;;;;;;;;;5113650;28;20026;-76
2022/08/30 09:50:54;;;;;;;1.40;0.90;;;;;;;;;;5108607;28;20034;-76
2022/08/30 09:53:23;;;;;;;11.50;1.10;;;;;;;;;;5092302;28;20024;-76
2022/08/30 09:56:01;;;;;;;3.33;0.93;;;;;;;;;;5093253;28;20063;-76
2022/08/30 09:58:50;;;;;;;1.80;0.93;;;;;;;;;;5093090;28;20050;-76
2022/08/30 10:01:21;;;;;;;4.55;1.63;;;;;;;;;;5084594;28;20036;-76
2022/08/30 10:04:00;;;;;;;2.45;0.90;;;;;;;;;;5092981;28;20032;-76
2022/08/30 10:06:25;;;;;;;2.58;0.88;;;;;;;;;;5092844;28;20378;-76
2022/08/30 10:08:52;;;;;;;3.65;0.80;;;;;;;;;;5093005;28;20024;-76
2022/08/30 10:11:18;;;;;;;4.75;1.00;;;;;;;;;;5093069;28;20527;-75
2022/08/30 10:13:44;;;;;;;9.85;1.00;;;;;;;;;;5092717;28;20024;-76
2022/08/30 10:16:29;;;;;;;6.45;0.90;;;;;;;;;;5092877;28;20025;-75
2022/08/30 10:19:02;;;;;;;1.23;0.90;;;;;;;;;;5092696;28;20107;-76
2022/08/30 10:21:35;;;;;;;4.20;0.93;;;;;;;;;;5092992;28;20024;-76
2022/08/30 10:24:04;;;;;;;1.65;0.80;;;;;;;;;;5092883;28;20016;-76
2022/08/30 10:26:32;;;;;;;1.63;0.70;;;;;;;;;;5093303;28;20020;-76
2022/08/30 10:29:01;;;;;;;3.80;1.13;;;;;;;;;;5092358;28;20340;-76
2022/08/30 10:31:31;;;;;;;7.03;0.90;;;;;;;;;;5092653;28;20058;-76
2022/08/30 10:34:01;;;;;;;4.88;1.02;;;;;;;;;;5092686;28;20024;-76
2022/08/30 10:36:31;;;;;;;4.05;1.10;;;;;;;;;;5092321;28;20039;-76
2022/08/30 10:38:58;;;;;;;2.42;1.00;;;;;;;;;;5092435;28;20020;-76
2022/08/30 10:41:24;;;;;;;2.35;0.90;;;;;;;;;;5092254;28;20020;-76
2022/08/30 10:44:01;;;;;;;2.05;0.80;;;;;;;;;;5092185;28;20027;-76
2022/08/30 10:46:27;;;;;;;1.80;0.80;;;;;;;;;;5100213;27;20019;-78
2022/08/30 10:48:54;;;;;;;1.95;0.73;;;;;;;;;;5120465;27;20023;-78
2022/08/30 10:51:31;;;;;;;2.67;0.82;;;;;;;;;;5116367;27;20123;-80
2022/08/30 10:54:10;;;;;;;2.40;0.90;;;;;;;;;;5115473;27;20344;-80
2022/08/30 10:56:38;;;;;;;3.15;0.95;;;;;;;;;;5113777;28;20024;-80
2022/08/30 10:59:04;;;;;;;3.00;0.80;;;;;;;;;;5113780;28;20028;-80
2022/08/30 11:01:45;;;;;;;3.25;0.80;;;;;;;;;;5126051;27;20050;-80
2022/08/30 11:04:27;;;;;;;1.45;0.80;;;;;;;;;;5121647;27;20072;-80
2022/08/30 11:06:53;;;;;;;2.60;1.10;;;;;;;;;;5093924;28;20108;-80
2022/08/30 11:09:37;;;;;;;3.28;1.00;;;;;;;;;;5120990;27;20015;-80
2022/08/30 11:12:16;;;;;;;2.28;0.70;;;;;;;;;;5115868;27;20027;-80
2022/08/30 11:14:44;;;;;;;5.15;1.00;;;;;;;;;;5134472;27;20468;-81
2022/08/30 11:17:24;;;;;;;2.40;1.02;;;;;;;;;;5132033;27;20027;-83
2022/08/30 11:19:51;;;;;;;5.07;1.00;;;;;;;;;;5134101;27;20132;-82
2022/08/30 11:22:32;;;;;;;1.70;0.80;;;;;;;;;;5115578;27;20401;-82
2022/08/30 11:24:58;;;;;;;2.03;0.70;;;;;;;;;;5134279;27;20476;-82
2022/08/30 11:27:42;;;;;;;3.63;0.80;;;;;;;;;;5134426;27;20023;-82
2022/08/30 11:30:35;;;;;;;2.72;0.90;;;;;;;;;;5134252;27;20022;-80
2022/08/30 11:33:05;;;;;;;1.65;0.90;;;;;;;;;;5097513;27;20100;-82
2022/08/30 11:35:54;;;;;;;5.28;1.20;;;;;;;;;;5135714;27;20107;-80
2022/08/30 11:38:40;;;;;;;4.38;0.70;;;;;;;;;;5134224;28;20019;-79
2022/08/30 11:41:11;;;;;;;3.15;0.90;;;;;;;;;;5112147;28;20024;-80
2022/08/30 11:43:38;;;;;;;8.82;1.80;;;;;;;;;;5113130;28;20462;-80
2022/08/30 11:46:23;;;;;;;1.73;0.70;;;;;;;;;;5112958;28;20023;-79
2022/08/30 11:49:04;;;;;;;3.15;1.10;;;;;;;;;;5113293;28;20054;-80
2022/08/30 11:51:53;;;;;;;2.85;0.80;;;;;;;;;;5095873;28;20418;-80
2022/08/30 11:54:38;;;;;;;2.08;0.82;;;;;;;;;;5102080;28;20489;-79
2022/08/30 11:57:20;;;;;;;3.45;1.10;;;;;;;;;;5109388;28;20477;-80
2022/08/30 11:59:50;;;;;;;1.90;0.77;;;;;;;;;;5113296;28;20077;-80
2022/08/30 12:02:34;;;;;;;2.05;0.88;;;;;;;;;;5113247;28;20043;-80
2022/08/30 12:05:00;;;;;;;2.58;1.35;;;;;;;;;;5095370;28;20424;-80
2022/08/30 12:07:47;;;;;;;4.20;1.00;;;;;;;;;;5112884;28;20457;-80
2022/08/30 12:10:21;;;;;;;4.32;0.80;;;;;;;;;;5098925;28;20115;-82
2022/08/30 12:12:48;;;;;;;2.95;0.90;;;;;;;;;;5112685;28;20024;-84
2022/08/30 12:15:28;;;;;;;2.05;0.90;;;;;;;;;;5112961;28;20015;-81
2022/08/30 12:20:43;;;;;;;5.75;1.10;;;;;;;;;;5096847;28;20024;-79
2022/08/30 12:23:16;;;;;;;2.35;0.90;;;;;;;;;;5096713;28;20410;-80
2022/08/30 12:25:42;;;;;;;3.72;0.88;;;;;;;;;;5096383;28;20028;-81
2022/08/30 12:28:23;;;;;;;5.15;0.77;;;;;;;;;;5116961;27;20092;-81
2022/08/30 12:30:50;;;;;;;2.00;0.75;;;;;;;;;;5137546;27;20034;-79
2022/08/30 12:33:38;;;;;;;1.13;0.90;;;;;;;;;;5107006;28;20107;-79
2022/08/30 12:36:05;;;;;;;4.50;0.80;;;;;;;;;;5114641;28;20043;-78
2022/08/30 12:38:31;;;;;;;1.80;0.90;;;;;;;;;;5115853;28;20027;-79
2022/08/30 12:40:59;;;;;;;3.20;0.90;;;;;;;;;;5115754;28;20027;-81
2022/08/30 12:43:29;;;;;;;4.47;0.88;;;;;;;;;;5097288;28;20073;-81
2022/08/30 12:45:57;;;;;;;5.80;1.00;;;;;;;;;;5108262;28;20039;-79
2022/08/30 12:48:23;;;;;;;2.55;1.00;;;;;;;;;;5095709;28;20024;-79
2022/08/30 12:50:52;;;;;;;3.42;0.70;;;;;;;;;;5095550;28;20020;-79
2022/08/30 12:53:23;;;;;;;2.90;0.85;;;;;;;;;;5095325;28;20078;-79
2022/08/30 12:55:54;;;;;;;7.07;0.98;;;;;;;;;;5095282;28;20023;-79
2022/08/30 12:58:53;;;;;;;2.00;0.77;;;;;;;;;;5095196;28;20070;-79
2022/08/30 13:01:27;;;;;;;4.18;1.05;;;;;;;;;;5050277;28;20036;-79
2022/08/30 13:03:57;;;;;;;2.75;0.60;;;;;;;;;;5094898;28;20016;-79
2022/08/30 13:06:56;;;;;;;2.80;0.85;;;;;;;;;;5076607;28;20419;-79
2022/08/30 13:09:22;;;;;;;5.05;1.00;;;;;;;;;;5061680;28;20052;-79
2022/08/30 13:11:50;;;;;;;5.82;1.13;;;;;;;;;;5095297;28;20095;-79
2022/08/30 13:14:18;;;;;;;4.18;1.55;;;;;;;;;;5094886;28;20027;-79
2022/08/30 13:16:44;;;;;;;4.55;0.80;;;;;;;;;;5094765;28;20418;-79
2022/08/30 13:19:16;;;;;;;2.78;1.00;;;;;;;;;;5095118;28;20382;-79
2022/08/30 13:21:53;;;;;;;1.92;1.00;;;;;;;;;;5094678;28;20036;-79
2022/08/30 13:24:19;;;;;;;3.85;0.90;;;;;;;;;;5094772;28;20535;-79
2022/08/30 13:26:46;;;;;;;2.13;0.90;;;;;;;;;;5094530;28;20020;-79
2022/08/30 13:29:16;;;;;;;2.83;0.98;;;;;;;;;;5094752;28;20582;-79
2022/08/30 13:31:42;;;;;;;1.73;0.70;;;;;;;;;;5094819;28;20536;-79
2022/08/30 13:34:09;;;;;;;5.07;1.45;;;;;;;;;;5094804;28;20032;-79
2022/08/30 13:36:36;;;;;;;2.40;0.88;;;;;;;;;;5094455;28;20028;-79
2022/08/30 13:39:03;;;;;;;4.20;1.00;;;;;;;;;;5094612;28;20028;-79
2022/08/30 13:41:29;;;;;;;4.03;1.00;;;;;;;;;;5094370;28;20021;-79
2022/08/30 13:43:56;;;;;;;4.07;1.25;;;;;;;;;;5096626;28;20617;-79
2022/08/30 13:46:25;;;;;;;4.35;1.20;;;;;;;;;;5107787;28;20019;-82
2022/08/30 13:48:53;;;;;;;2.33;0.88;;;;;;;;;;5110858;28;20035;-81
2022/08/30 13:51:19;;;;;;;2.40;0.90;;;;;;;;;;5114757;28;20027;-80
2022/08/30 13:53:45;;;;;;;32.35;4.95;;;;;;;;;;5114968;28;20024;-80
2022/08/30 13:56:11;;;;;;;24.65;5.55;;;;;;;;;;5114987;28;20046;-80
2022/08/30 13:58:37;;;;;;;13.75;2.72;;;;;;;;;;5096198;28;20051;-80
2022/08/30 14:01:03;;;;;;;2.65;1.20;;;;;;;;;;5114368;28;20023;-80
2022/08/30 14:03:29;;;;;;;4.47;1.00;;;;;;;;;;5114674;28;20028;-84
2022/08/30 14:05:58;;;;;;;3.10;1.20;;;;;;;;;;5114420;28;20050;-85
2022/08/30 14:08:29;;;;;;;2.47;1.10;;;;;;;;;;5114461;28;20452;-85
2022/08/30 14:10:55;;;;;;;3.17;1.00;;;;;;;;;;5114732;28;20019;-85
2022/08/30 14:13:21;;;;;;;3.15;1.08;;;;;;;;;;5096137;28;20352;-84
2022/08/30 14:15:47;;;;;;;2.25;0.80;;;;;;;;;;5114452;28;20492;-83
2022/08/30 14:18:14;;;;;;;1.83;1.00;;;;;;;;;;5114146;28;20034;-81
2022/08/30 14:20:40;;;;;;;2.08;0.90;;;;;;;;;;5114244;28;20019;-84
2022/08/30 14:23:06;;;;;;;3.40;0.98;;;;;;;;;;5096121;28;20020;-83
2022/08/30 14:25:32;;;;;;;6.03;0.85;;;;;;;;;;5114108;28;20350;-82
2022/08/30 14:27:59;;;;;;;2.33;1.00;;;;;;;;;;5114409;28;20016;-83
2022/08/30 14:30:25;;;;;;;1.92;0.93;;;;;;;;;;5114011;28;20027;-83
2022/08/30 14:32:51;;;;;;;7.53;1.33;;;;;;;;;;5107796;28;20382;-82
2022/08/30 14:35:19;;;;;;;2.75;1.20;;;;;;;;;;5093642;28;20032;-83
2022/08/30 14:37:45;;;;;;;4.60;0.88;;;;;;;;;;5093509;28;20084;-82
2022/08/30 14:40:11;;;;;;;1.88;1.23;;;;;;;;;;5092844;28;20023;-81
2022/08/30 14:42:37;;;;;;;2.20;0.90;;;;;;;;;;5093564;28;20027;-82
2022/08/30 14:45:04;;;;;;;10.25;1.48;;;;;;;;;;5113387;27;20031;-81
2022/08/30 14:47:30;;;;;;;10.13;1.10;;;;;;;;;;5120037;27;20457;-81
2022/08/30 14:49:59;;;;;;;3.30;1.05;;;;;;;;;;5134671;27;20425;-81
2022/08/30 14:52:25;;;;;;;3.17;1.10;;;;;;;;;;5134699;27;20084;-81
2022/08/30 14:54:51;;;;;;;1.45;0.90;;;;;;;;;;5115713;27;20023;-82
2022/08/30 14:57:17;;;;;;;6.30;1.10;;;;;;;;;;5119995;27;20019;-82